Time;durP1;ratioP1;P1;durP2;ratioP2;P2;SDS_P1;SDS_P2;PMS_P1;PMS_P2;Temp;Humidity;BMP_temperature;BMP_pressure;BME280_temperature;BME280_humidity;BME280_pressure;Samples;Min_cycle;Max_cycle;Signal;HPM_P1;HPM_P2
2021/11/22 00:02:02;;;;;;;8.18;4.00;;;8.90;99.00;;;;;;4967222;28;20042;-62
2021/11/22 00:04:29;;;;;;;12.52;4.28;;;8.80;99.10;;;;;;4974464;28;20523;-62
2021/11/22 00:06:54;;;;;;;9.35;3.97;;;8.80;99.10;;;;;;4973248;28;20031;-62
2021/11/22 00:09:20;;;;;;;12.85;4.55;;;8.80;99.10;;;;;;4974603;28;20101;-62
2021/11/22 00:11:48;;;;;;;11.45;4.38;;;8.70;99.10;;;;;;4973066;28;20518;-62
2021/11/22 00:14:14;;;;;;;6.18;3.72;;;8.70;99.20;;;;;;4974971;28;20035;-63
2021/11/22 00:16:39;;;;;;;7.45;3.10;;;8.70;99.20;;;;;;4973567;28;20108;-63
2021/11/22 00:19:05;;;;;;;14.95;4.22;;;8.60;99.20;;;;;;4974865;28;20042;-63
2021/11/22 00:21:31;;;;;;;8.13;3.72;;;8.60;99.20;;;;;;4973530;28;20030;-62
2021/11/22 00:23:56;;;;;;;9.18;4.50;;;8.60;99.30;;;;;;4974441;28;20038;-63
2021/11/22 00:26:22;;;;;;;8.15;3.15;;;8.50;99.30;;;;;;4973539;28;20031;-63
2021/11/22 00:28:47;;;;;;;7.95;3.80;;;8.50;99.50;;;;;;4974724;28;20026;-63
2021/11/22 00:31:13;;;;;;;6.47;3.22;;;8.50;99.30;;;;;;4967577;28;20094;-63
2021/11/22 00:33:42;;;;;;;8.15;3.08;;;8.50;99.30;;;;;;4938453;28;20129;-63
2021/11/22 00:36:08;;;;;;;6.07;2.95;;;8.50;99.30;;;;;;4956225;28;20023;-62
2021/11/22 00:38:33;;;;;;;9.43;3.30;;;8.60;99.40;;;;;;4974610;28;20033;-63
2021/11/22 00:40:59;;;;;;;5.35;3.22;;;8.60;99.40;;;;;;4973091;28;20026;-62
2021/11/22 00:43:25;;;;;;;6.20;3.35;;;8.60;99.30;;;;;;4974640;28;20090;-62
2021/11/22 00:45:54;;;;;;;7.57;3.55;;;8.60;99.20;;;;;;4972124;28;20030;-63
2021/11/22 00:48:21;;;;;;;6.75;3.25;;;8.60;99.30;;;;;;4974093;28;20062;-63
2021/11/22 00:50:50;;;;;;;6.50;3.25;;;8.60;99.30;;;;;;4973723;28;20031;-63
2021/11/22 00:53:16;;;;;;;7.20;3.38;;;8.60;99.30;;;;;;4972760;28;20033;-63
2021/11/22 00:55:42;;;;;;;6.72;3.05;;;8.60;99.20;;;;;;4972956;28;20055;-63
2021/11/22 00:58:08;;;;;;;5.38;2.90;;;8.60;99.30;;;;;;4974374;28;20039;-63
2021/11/22 01:00:34;;;;;;;5.95;3.28;;;8.50;99.20;;;;;;4972974;28;20093;-63
2021/11/22 01:03:00;;;;;;;6.35;3.10;;;8.40;99.10;;;;;;4974129;28;20027;-62
2021/11/22 01:05:26;;;;;;;6.97;2.95;;;8.40;99.10;;;;;;4972710;28;20034;-62
2021/11/22 01:07:51;;;;;;;4.93;2.95;;;8.30;99.10;;;;;;4972797;28;20030;-62
2021/11/22 01:10:18;;;;;;;7.68;2.78;;;8.30;99.20;;;;;;4972864;28;20402;-62
2021/11/22 01:12:45;;;;;;;4.07;2.40;;;8.20;99.30;;;;;;4972747;28;20027;-62
2021/11/22 01:15:13;;;;;;;7.95;3.20;;;8.20;99.30;;;;;;4973471;28;20031;-62
2021/11/22 01:17:41;;;;;;;4.88;3.00;;;8.10;99.30;;;;;;4972834;28;20042;-63
2021/11/22 01:20:10;;;;;;;6.68;3.45;;;8.10;99.30;;;;;;4973007;28;20161;-62
2021/11/22 01:22:37;;;;;;;5.38;3.05;;;8.00;99.30;;;;;;4972269;28;20022;-62
2021/11/22 01:25:03;;;;;;;6.03;2.97;;;8.00;99.40;;;;;;4972755;28;20051;-62
2021/11/22 01:27:29;;;;;;;5.78;2.90;;;8.00;99.50;;;;;;4971659;28;20400;-62
2021/11/22 01:29:54;;;;;;;6.07;3.00;;;8.00;99.60;;;;;;4973098;28;20026;-62
2021/11/22 01:32:20;;;;;;;4.60;3.05;;;8.00;99.50;;;;;;4972172;28;20026;-62
2021/11/22 01:34:46;;;;;;;5.65;3.83;;;8.00;99.50;;;;;;4970015;28;20023;-62
2021/11/22 01:37:11;;;;;;;7.85;3.30;;;8.00;99.50;;;;;;4970034;28;20066;-62
2021/11/22 01:39:37;;;;;;;6.00;2.70;;;8.00;99.60;;;;;;4973169;28;20764;-62
2021/11/22 01:42:03;;;;;;;5.93;3.13;;;7.90;99.90;;;;;;4972450;28;20038;-63
2021/11/22 01:44:29;;;;;;;4.85;3.20;;;7.80;99.70;;;;;;4971666;28;20067;-63
2021/11/22 01:46:55;;;;;;;6.70;3.17;;;7.80;99.70;;;;;;4954458;28;20027;-63
2021/11/22 01:49:21;;;;;;;4.60;2.58;;;7.80;99.80;;;;;;4965568;28;20386;-63
2021/11/22 01:51:47;;;;;;;6.82;2.47;;;7.80;99.90;;;;;;4972150;28;20069;-63
2021/11/22 01:54:16;;;;;;;8.40;2.40;;;7.70;99.90;;;;;;4971943;28;20055;-63
2021/11/22 01:56:43;;;;;;;5.63;2.65;;;7.80;99.90;;;;;;4970556;28;20051;-62
2021/11/22 01:59:12;;;;;;;5.50;2.20;;;7.80;99.80;;;;;;4973127;28;20049;-63
2021/11/22 02:01:38;;;;;;;5.10;2.67;;;7.70;99.80;;;;;;4971871;28;20394;-62
2021/11/22 02:04:04;;;;;;;5.45;2.45;;;7.70;99.80;;;;;;4971447;28;20478;-63
2021/11/22 02:06:29;;;;;;;4.22;2.08;;;7.60;99.90;;;;;;4954069;28;20031;-63
2021/11/22 02:08:55;;;;;;;3.95;2.17;;;7.60;99.90;;;;;;4972106;28;20041;-62
2021/11/22 02:11:21;;;;;;;6.60;2.25;;;7.50;99.90;;;;;;4970956;28;20521;-62
2021/11/22 02:13:46;;;;;;;6.90;2.25;;;7.50;99.90;;;;;;4973088;28;20497;-63
2021/11/22 02:16:12;;;;;;;7.53;2.20;;;7.50;99.90;;;;;;4971472;28;20039;-62
2021/11/22 02:18:40;;;;;;;5.32;2.40;;;7.40;99.90;;;;;;4972213;28;20031;-62
2021/11/22 02:21:06;;;;;;;4.70;2.40;;;7.40;99.90;;;;;;4951410;28;20035;-62
2021/11/22 02:23:32;;;;;;;4.20;1.90;;;7.50;99.90;;;;;;4969137;28;20050;-62
2021/11/22 02:25:57;;;;;;;3.88;2.35;;;7.50;99.90;;;;;;4971690;28;20026;-62
2021/11/22 02:28:23;;;;;;;5.38;2.75;;;7.40;99.90;;;;;;4972186;28;20371;-62
2021/11/22 02:30:49;;;;;;;3.40;1.98;;;7.40;99.90;;;;;;4971781;28;20038;-62
2021/11/22 02:33:18;;;;;;;4.55;2.10;;;7.40;99.90;;;;;;4970578;28;20418;-62
2021/11/22 02:35:49;;;;;;;4.47;1.88;;;7.40;99.90;;;;;;4970927;28;20113;-62
2021/11/22 02:38:22;;;;;;;3.58;1.70;;;7.40;99.90;;;;;;4970292;28;20041;-62
2021/11/22 02:40:48;;;;;;;4.65;2.03;;;7.40;99.90;;;;;;4972613;28;20545;-62
2021/11/22 02:43:15;;;;;;;3.42;1.85;;;7.40;99.90;;;;;;4969056;28;20049;-62
2021/11/22 02:45:41;;;;;;;5.18;1.85;;;7.30;99.90;;;;;;4971751;28;20081;-62
2021/11/22 02:48:07;;;;;;;4.07;1.60;;;7.30;99.90;;;;;;4971110;28;20114;-63
2021/11/22 02:50:33;;;;;;;2.67;1.95;;;7.30;99.90;;;;;;4971927;28;20622;-62
2021/11/22 02:52:59;;;;;;;3.28;1.95;;;7.40;99.90;;;;;;4971435;28;21964;-62
2021/11/22 02:55:25;;;;;;;5.28;1.80;;;7.40;99.90;;;;;;4973903;28;20051;-62
2021/11/22 02:57:52;;;;;;;2.47;1.65;;;7.40;99.90;;;;;;4974571;28;20031;-62
2021/11/22 03:00:30;;;;;;;3.88;1.52;;;7.40;99.90;;;;;;4976341;28;20409;-63
2021/11/22 03:02:56;;;;;;;4.00;1.85;;;7.40;99.90;;;;;;4969501;28;20453;-62
2021/11/22 03:05:23;;;;;;;2.90;1.50;;;7.40;99.90;;;;;;4963140;28;20102;-62
2021/11/22 03:07:51;;;;;;;3.60;1.60;;;7.40;99.90;;;;;;4973818;28;20062;-62
2021/11/22 03:10:19;;;;;;;1.85;1.13;;;7.40;99.90;;;;;;4976201;28;20030;-62
2021/11/22 03:12:45;;;;;;;2.80;1.70;;;7.50;99.90;;;;;;4974262;28;20063;-62
2021/11/22 03:15:16;;;;;;;5.43;1.80;;;7.40;99.90;;;;;;4976451;28;20522;-63
2021/11/22 03:17:42;;;;;;;6.18;1.40;;;7.40;99.90;;;;;;4973967;28;20473;-62
2021/11/22 03:20:10;;;;;;;3.05;1.63;;;7.40;99.90;;;;;;4976017;28;20085;-63
2021/11/22 03:22:36;;;;;;;2.33;1.40;;;7.40;99.90;;;;;;4974744;28;20096;-62
2021/11/22 03:25:04;;;;;;;3.78;1.50;;;7.50;99.90;;;;;;4975683;28;20034;-63
2021/11/22 03:27:30;;;;;;;1.88;1.30;;;7.40;99.90;;;;;;4972590;28;20169;-63
2021/11/22 03:29:56;;;;;;;2.72;1.42;;;7.40;99.90;;;;;;4969439;28;20437;-63
2021/11/22 03:32:21;;;;;;;1.67;1.15;;;7.50;99.90;;;;;;4973320;28;20153;-63
2021/11/22 03:34:47;;;;;;;2.15;1.33;;;7.50;99.90;;;;;;4968435;28;20038;-63
2021/11/22 03:37:14;;;;;;;2.35;1.38;;;7.50;99.90;;;;;;4974752;28;20022;-62
2021/11/22 03:39:44;;;;;;;2.47;1.58;;;7.50;99.90;;;;;;4972028;28;20065;-63
2021/11/22 03:42:15;;;;;;;3.25;1.40;;;7.50;99.90;;;;;;4975185;28;20023;-62
2021/11/22 03:44:40;;;;;;;4.60;1.70;;;7.50;99.90;;;;;;4972147;28;20030;-63
2021/11/22 03:47:06;;;;;;;2.30;1.20;;;7.60;99.90;;;;;;4954742;28;20038;-62
2021/11/22 03:49:33;;;;;;;2.92;1.70;;;7.60;99.90;;;;;;4975476;28;20037;-62
2021/11/22 03:52:01;;;;;;;3.83;1.50;;;7.60;99.90;;;;;;4975674;28;20027;-62
2021/11/22 03:54:26;;;;;;;3.50;1.40;;;7.60;99.90;;;;;;4973357;28;20050;-62
2021/11/22 03:56:52;;;;;;;4.40;1.88;;;7.50;99.90;;;;;;4975492;28;20082;-63
2021/11/22 03:59:18;;;;;;;3.10;1.70;;;7.50;99.90;;;;;;4974529;28;20046;-63
2021/11/22 04:01:44;;;;;;;4.00;1.80;;;7.50;99.90;;;;;;4973486;28;20057;-63
2021/11/22 04:04:11;;;;;;;2.65;1.48;;;7.50;99.90;;;;;;4974714;28;20386;-63
2021/11/22 04:06:37;;;;;;;2.55;1.30;;;7.50;99.90;;;;;;4974596;28;20035;-63
2021/11/22 04:09:04;;;;;;;4.47;1.30;;;7.50;99.90;;;;;;4974257;28;20085;-63
2021/11/22 04:11:30;;;;;;;2.90;1.40;;;7.50;99.90;;;;;;4974256;28;20022;-61
2021/11/22 04:13:56;;;;;;;6.18;1.42;;;7.50;99.90;;;;;;4974085;28;20363;-62
2021/11/22 04:16:22;;;;;;;1.67;1.20;;;7.50;99.90;;;;;;4974763;28;20033;-62
2021/11/22 04:18:49;;;;;;;3.00;1.40;;;7.50;99.90;;;;;;4974136;28;20031;-62
2021/11/22 04:21:17;;;;;;;4.03;1.40;;;7.50;99.90;;;;;;4975205;28;20138;-62
2021/11/22 04:23:43;;;;;;;3.17;1.50;;;7.50;99.90;;;;;;4973781;28;20050;-62
2021/11/22 04:26:10;;;;;;;5.60;1.10;;;7.60;99.90;;;;;;4974011;28;20066;-63
2021/11/22 04:28:37;;;;;;;2.47;1.45;;;7.60;99.90;;;;;;4972123;28;20039;-63
2021/11/22 04:31:03;;;;;;;4.65;1.30;;;7.60;99.90;;;;;;4974769;28;20057;-63
2021/11/22 04:33:29;;;;;;;1.70;1.30;;;7.70;99.90;;;;;;4973156;28;20327;-62
2021/11/22 04:35:55;;;;;;;3.78;1.50;;;7.70;99.90;;;;;;4974663;28;20023;-62
2021/11/22 04:38:21;;;;;;;3.70;1.40;;;7.70;99.90;;;;;;4972304;28;20113;-63
2021/11/22 04:40:46;;;;;;;3.42;1.30;;;7.70;99.90;;;;;;4974364;28;20081;-63
2021/11/22 04:43:12;;;;;;;1.73;0.90;;;7.70;99.90;;;;;;4974091;28;20062;-63
2021/11/22 04:45:38;;;;;;;2.38;1.25;;;7.60;99.90;;;;;;4953535;29;20054;-63
2021/11/22 04:48:05;;;;;;;3.38;1.92;;;7.70;99.90;;;;;;4971059;28;20382;-62
2021/11/22 04:50:31;;;;;;;2.78;1.20;;;7.70;99.90;;;;;;4957135;28;20539;-63
2021/11/22 04:52:59;;;;;;;1.45;0.90;;;7.70;99.90;;;;;;4972703;28;20503;-63
2021/11/22 04:55:25;;;;;;;3.95;1.38;;;7.70;99.90;;;;;;4972933;28;20043;-64
2021/11/22 04:57:52;;;;;;;2.63;1.10;;;7.70;99.90;;;;;;4972275;28;20027;-63
2021/11/22 05:00:22;;;;;;;4.25;1.83;;;7.60;99.90;;;;;;4955767;28;20498;-63
2021/11/22 05:02:48;;;;;;;4.05;1.35;;;7.70;99.90;;;;;;4954162;28;20077;-62
2021/11/22 05:05:15;;;;;;;1.83;1.15;;;7.70;99.90;;;;;;4974482;28;20495;-63
2021/11/22 05:07:41;;;;;;;3.97;1.40;;;7.70;99.90;;;;;;4972094;28;20493;-63
2021/11/22 05:10:08;;;;;;;4.82;1.27;;;7.70;99.90;;;;;;4974198;28;20047;-63
2021/11/22 05:12:34;;;;;;;4.43;1.20;;;7.70;99.90;;;;;;4971886;28;20019;-62
2021/11/22 05:15:00;;;;;;;3.55;1.08;;;7.70;99.90;;;;;;4974213;28;20109;-63
2021/11/22 05:17:26;;;;;;;2.10;1.05;;;7.70;99.90;;;;;;4972396;28;20026;-63
2021/11/22 05:19:52;;;;;;;2.20;1.30;;;7.70;99.90;;;;;;4973913;28;20049;-63
2021/11/22 05:22:19;;;;;;;6.13;1.40;;;7.70;99.90;;;;;;4972958;28;20054;-63
2021/11/22 05:24:49;;;;;;;2.13;1.13;;;7.60;99.90;;;;;;4967487;28;20090;-63
2021/11/22 05:27:20;;;;;;;2.83;1.10;;;7.60;99.90;;;;;;4962574;28;20018;-63
2021/11/22 05:29:46;;;;;;;2.42;1.20;;;7.60;99.90;;;;;;4973194;28;20394;-63
2021/11/22 05:32:17;;;;;;;2.38;1.20;;;7.60;99.90;;;;;;4972978;28;20097;-63
2021/11/22 05:34:50;;;;;;;1.58;1.00;;;7.50;99.90;;;;;;4964727;28;20106;-63
2021/11/22 05:37:17;;;;;;;2.47;1.20;;;7.40;99.90;;;;;;4971936;28;20041;-63
2021/11/22 05:39:44;;;;;;;4.38;1.38;;;7.40;99.90;;;;;;4973349;28;20130;-63
2021/11/22 05:42:10;;;;;;;2.47;1.27;;;7.30;99.90;;;;;;4972778;28;20062;-63
2021/11/22 05:44:36;;;;;;;3.33;1.27;;;7.30;99.90;;;;;;4973328;28;20049;-63
2021/11/22 05:47:05;;;;;;;2.78;1.35;;;7.30;99.90;;;;;;4951877;28;20102;-63
2021/11/22 05:49:33;;;;;;;4.75;0.80;;;7.30;99.90;;;;;;4972636;28;20039;-63
2021/11/22 05:52:00;;;;;;;2.70;1.10;;;7.30;99.90;;;;;;4962909;28;20083;-63
2021/11/22 05:54:26;;;;;;;3.22;1.00;;;7.20;99.80;;;;;;4972424;28;20038;-63
2021/11/22 05:56:52;;;;;;;2.50;1.00;;;7.20;99.80;;;;;;4972689;28;20047;-63
2021/11/22 05:59:19;;;;;;;2.05;1.00;;;7.20;99.80;;;;;;4954285;28;20394;-63
2021/11/22 06:01:45;;;;;;;3.60;1.15;;;7.20;99.80;;;;;;4971724;28;20031;-63
2021/11/22 06:04:11;;;;;;;4.00;1.08;;;7.10;99.70;;;;;;4972118;28;20046;-63
2021/11/22 06:06:36;;;;;;;2.40;0.77;;;7.10;99.70;;;;;;4971679;28;20026;-63
2021/11/22 06:09:02;;;;;;;4.15;1.25;;;7.10;99.60;;;;;;4972097;28;20031;-63
2021/11/22 06:11:28;;;;;;;2.33;1.40;;;7.00;99.50;;;;;;4973101;28;20070;-63
2021/11/22 06:13:54;;;;;;;3.53;1.63;;;7.00;99.60;;;;;;4972231;28;20037;-63
2021/11/22 06:16:19;;;;;;;3.72;1.63;;;6.90;99.50;;;;;;4972822;28;20518;-63
2021/11/22 06:18:45;;;;;;;4.43;1.90;;;6.90;99.50;;;;;;4954371;28;20121;-64
2021/11/22 06:21:11;;;;;;;4.90;2.30;;;6.80;99.40;;;;;;4972047;28;20522;-62
2021/11/22 06:23:36;;;;;;;3.10;1.83;;;6.80;99.40;;;;;;4971602;28;20105;-62
2021/11/22 06:26:02;;;;;;;4.30;1.90;;;6.80;99.40;;;;;;4972910;28;20031;-62
2021/11/22 06:28:28;;;;;;;3.03;1.90;;;6.70;99.40;;;;;;4971111;28;20538;-62
2021/11/22 06:30:53;;;;;;;2.90;2.10;;;6.70;99.40;;;;;;4971754;28;20121;-63
2021/11/22 06:33:19;;;;;;;3.67;2.42;;;6.70;99.30;;;;;;4970931;28;20038;-63
2021/11/22 06:35:45;;;;;;;3.20;1.60;;;6.70;99.30;;;;;;4970273;28;20022;-62
2021/11/22 06:38:12;;;;;;;1.92;1.05;;;6.70;99.20;;;;;;4969465;28;20242;-62
2021/11/22 06:40:38;;;;;;;2.72;1.33;;;6.70;99.10;;;;;;4972453;28;20557;-62
2021/11/22 06:43:04;;;;;;;2.85;1.50;;;6.60;99.10;;;;;;4971754;28;20034;-62
2021/11/22 06:45:30;;;;;;;3.05;1.60;;;6.60;99.10;;;;;;4971579;28;20031;-62
2021/11/22 06:47:56;;;;;;;2.42;1.05;;;6.50;99.00;;;;;;4971115;28;20033;-62
2021/11/22 06:50:22;;;;;;;3.95;1.33;;;6.50;99.10;;;;;;4972175;28;20031;-62
2021/11/22 06:52:48;;;;;;;3.05;1.40;;;6.50;99.00;;;;;;4971305;28;20043;-62
2021/11/22 06:55:14;;;;;;;3.63;1.98;;;6.50;99.00;;;;;;4972198;28;20061;-62
2021/11/22 06:57:41;;;;;;;4.43;2.08;;;6.50;99.00;;;;;;4971232;28;20038;-62
2021/11/22 07:00:09;;;;;;;3.30;1.77;;;6.50;98.80;;;;;;4970454;28;20045;-63
2021/11/22 07:02:37;;;;;;;3.42;1.70;;;6.50;98.90;;;;;;4971281;28;20114;-63
2021/11/22 07:05:04;;;;;;;3.88;1.65;;;6.40;98.90;;;;;;4971247;28;20114;-63
2021/11/22 07:07:30;;;;;;;2.88;1.70;;;6.40;98.90;;;;;;4971483;28;20029;-62
2021/11/22 07:09:55;;;;;;;4.38;1.65;;;6.30;99.10;;;;;;4972431;28;20035;-63
2021/11/22 07:12:21;;;;;;;3.17;1.67;;;6.30;98.90;;;;;;4971554;28;20026;-63
2021/11/22 07:14:48;;;;;;;3.83;1.88;;;6.30;98.90;;;;;;4972287;28;20073;-63
2021/11/22 07:17:15;;;;;;;3.90;1.55;;;6.30;98.90;;;;;;4971558;28;20050;-63
2021/11/22 07:19:44;;;;;;;4.10;1.48;;;6.30;98.80;;;;;;4972188;28;20050;-64
2021/11/22 07:22:11;;;;;;;3.90;2.20;;;6.20;98.90;;;;;;4971005;28;20102;-62
2021/11/22 07:24:42;;;;;;;3.67;2.13;;;6.20;98.90;;;;;;4966345;28;20109;-62
2021/11/22 07:27:09;;;;;;;5.80;2.08;;;6.20;98.90;;;;;;4967922;28;20039;-61
2021/11/22 07:29:35;;;;;;;3.92;1.88;;;6.20;98.90;;;;;;4970324;28;20482;-63
2021/11/22 07:32:01;;;;;;;4.68;1.77;;;6.20;98.90;;;;;;4971293;28;20141;-62
2021/11/22 07:34:27;;;;;;;5.15;2.20;;;6.20;98.90;;;;;;4969170;28;20486;-62
2021/11/22 07:36:53;;;;;;;4.72;1.90;;;6.20;98.90;;;;;;4970029;28;20069;-62
2021/11/22 07:39:18;;;;;;;5.20;2.13;;;6.20;98.90;;;;;;4961732;28;20038;-62
2021/11/22 07:41:44;;;;;;;3.33;1.80;;;6.20;98.90;;;;;;4971780;28;20038;-63
2021/11/22 07:44:10;;;;;;;3.88;1.63;;;6.20;99.00;;;;;;4974206;28;20547;-62
2021/11/22 07:46:36;;;;;;;2.92;1.70;;;6.20;99.00;;;;;;4970768;28;20125;-63
2021/11/22 07:49:02;;;;;;;6.15;2.53;;;6.20;99.00;;;;;;4972906;28;20442;-63
2021/11/22 07:51:27;;;;;;;5.97;2.20;;;6.20;98.90;;;;;;4956186;28;20030;-62
2021/11/22 07:53:53;;;;;;;3.72;1.65;;;6.20;98.90;;;;;;4972279;28;20474;-62
2021/11/22 07:56:19;;;;;;;3.40;1.63;;;6.30;98.90;;;;;;4973125;28;20149;-63
2021/11/22 07:58:45;;;;;;;6.00;1.70;;;6.30;98.90;;;;;;4972396;28;20106;-62
2021/11/22 08:01:11;;;;;;;3.00;1.75;;;6.20;98.80;;;;;;4973792;28;20162;-62
2021/11/22 08:03:36;;;;;;;3.70;1.90;;;6.20;98.80;;;;;;4954783;28;20038;-62
2021/11/22 08:06:03;;;;;;;4.32;1.42;;;6.20;98.90;;;;;;4972391;28;20046;-62
2021/11/22 08:08:31;;;;;;;3.08;1.70;;;6.20;98.80;;;;;;4971619;28;20037;-62
2021/11/22 08:13:34;;;;;;;3.67;1.48;;;6.20;98.90;;;;;;4973504;28;20031;-62
2021/11/22 08:16:02;;;;;;;2.20;1.33;;;6.20;98.90;;;;;;4972288;28;20447;-62
2021/11/22 08:18:28;;;;;;;3.60;1.90;;;6.20;98.90;;;;;;4966062;28;20387;-62
2021/11/22 08:20:55;;;;;;;2.55;1.50;;;6.20;98.80;;;;;;4975853;28;20150;-62
2021/11/22 08:23:21;;;;;;;3.28;1.73;;;6.20;98.90;;;;;;4973426;28;20514;-62
2021/11/22 08:25:46;;;;;;;4.60;2.13;;;6.20;98.90;;;;;;4968084;28;20042;-62
2021/11/22 08:28:12;;;;;;;6.78;1.80;;;6.20;98.90;;;;;;4969961;28;20109;-62
2021/11/22 08:30:38;;;;;;;4.18;2.10;;;6.30;98.90;;;;;;4965125;28;20035;-62
2021/11/22 08:33:04;;;;;;;3.75;1.65;;;6.40;98.90;;;;;;4971750;28;20386;-62
2021/11/22 08:35:31;;;;;;;2.28;1.27;;;6.40;98.70;;;;;;4971131;28;20101;-62
2021/11/22 08:37:58;;;;;;;4.22;1.90;;;6.40;98.80;;;;;;4972430;28;20030;-62
2021/11/22 08:40:25;;;;;;;2.17;1.40;;;6.40;98.60;;;;;;4971963;28;20057;-62
2021/11/22 08:42:52;;;;;;;6.65;1.95;;;6.50;98.50;;;;;;4969181;28;20030;-62
2021/11/22 08:45:19;;;;;;;2.35;1.35;;;6.50;98.40;;;;;;4969480;28;20113;-62
2021/11/22 08:47:46;;;;;;;2.78;1.60;;;6.50;98.40;;;;;;4971205;28;20042;-62
2021/11/22 08:50:13;;;;;;;3.25;1.52;;;6.50;98.30;;;;;;4952509;29;20101;-62
2021/11/22 08:52:40;;;;;;;5.10;2.08;;;6.50;98.10;;;;;;4967253;28;20031;-62
2021/11/22 08:55:07;;;;;;;4.68;1.30;;;6.50;98.00;;;;;;4965921;28;20026;-61
2021/11/22 08:57:34;;;;;;;2.83;1.40;;;6.50;98.00;;;;;;4972293;28;20023;-62
2021/11/22 09:00:00;;;;;;;1.90;1.10;;;6.50;98.10;;;;;;4965475;28;20042;-61
2021/11/22 09:02:25;;;;;;;2.13;1.30;;;6.40;97.80;;;;;;4954415;28;20469;-61
2021/11/22 09:04:51;;;;;;;3.55;1.50;;;6.40;97.70;;;;;;4970383;28;20126;-62
2021/11/22 09:07:17;;;;;;;4.38;1.35;;;6.40;97.80;;;;;;4965405;28;20509;-62
2021/11/22 09:09:44;;;;;;;2.65;1.30;;;6.40;97.80;;;;;;4971962;28;20106;-61
2021/11/22 09:12:10;;;;;;;2.38;1.20;;;6.50;97.70;;;;;;4971237;28;20019;-62
2021/11/22 09:14:35;;;;;;;2.20;1.40;;;6.40;97.60;;;;;;4968530;28;20401;-61
2021/11/22 09:17:01;;;;;;;3.53;1.52;;;6.40;97.60;;;;;;4970227;28;20026;-62
2021/11/22 09:19:27;;;;;;;8.20;1.58;;;6.50;97.60;;;;;;4956779;28;20096;-61
2021/11/22 09:21:53;;;;;;;2.55;1.20;;;6.50;97.50;;;;;;4971170;28;20034;-61
2021/11/22 09:24:18;;;;;;;3.38;1.35;;;6.50;97.50;;;;;;4971629;28;20050;-61
2021/11/22 09:26:45;;;;;;;5.93;1.73;;;6.60;97.50;;;;;;4971544;28;20466;-61
2021/11/22 09:29:10;;;;;;;5.75;1.83;;;6.60;97.50;;;;;;4971090;28;20470;-61
2021/11/22 09:31:36;;;;;;;2.33;1.60;;;6.60;97.40;;;;;;4971875;28;20038;-61
2021/11/22 09:34:02;;;;;;;2.85;1.35;;;6.70;97.40;;;;;;4963711;28;20037;-61
2021/11/22 09:36:28;;;;;;;1.77;1.20;;;6.70;97.20;;;;;;4968144;28;20512;-62
2021/11/22 09:38:54;;;;;;;3.75;1.73;;;6.70;96.90;;;;;;4967663;28;20058;-61
2021/11/22 09:41:22;;;;;;;2.40;1.30;;;6.70;96.80;;;;;;4966150;28;20030;-62
2021/11/22 09:43:48;;;;;;;2.03;1.17;;;6.70;96.90;;;;;;4970671;28;20031;-61
2021/11/22 09:46:15;;;;;;;3.20;1.80;;;6.70;96.70;;;;;;4971134;28;20026;-61
2021/11/22 09:48:42;;;;;;;2.05;1.33;;;6.70;96.50;;;;;;4953596;28;20034;-62
2021/11/22 09:51:10;;;;;;;2.60;1.42;;;6.70;96.50;;;;;;4972405;28;20073;-62
2021/11/22 09:53:37;;;;;;;2.13;1.45;;;6.80;96.50;;;;;;4972420;28;20027;-62
2021/11/22 09:56:03;;;;;;;1.60;1.20;;;6.80;96.20;;;;;;4967409;28;20089;-61
2021/11/22 09:58:28;;;;;;;2.88;1.33;;;6.80;96.20;;;;;;4966018;28;20078;-61
2021/11/22 10:01:00;;;;;;;3.75;1.75;;;6.90;96.30;;;;;;4963895;28;20042;-61
2021/11/22 10:03:26;;;;;;;4.50;1.90;;;6.90;96.10;;;;;;4975316;28;20462;-62
2021/11/22 10:06:00;;;;;;;3.90;1.60;;;6.90;96.20;;;;;;4972794;28;20122;-61
2021/11/22 10:08:27;;;;;;;1.10;1.00;;;6.90;95.90;;;;;;4971038;28;20356;-61
2021/11/22 10:10:59;;;;;;;2.03;1.10;;;6.90;95.50;;;;;;4953694;28;20159;-61
2021/11/22 10:13:37;;;;;;;2.03;1.15;;;7.00;95.60;;;;;;4973543;28;20080;-61
2021/11/22 10:16:11;;;;;;;2.22;1.55;;;7.00;95.70;;;;;;4978229;28;20125;-61
2021/11/22 10:18:59;;;;;;;2.60;1.60;;;7.00;95.90;;;;;;4972359;28;20041;-61
2021/11/22 10:21:38;;;;;;;2.42;1.50;;;7.10;95.70;;;;;;4971234;28;20042;-60
2021/11/22 10:24:09;;;;;;;1.05;0.95;;;7.10;95.50;;;;;;4964239;28;20035;-61
2021/11/22 10:26:47;;;;;;;2.13;1.27;;;7.20;94.80;;;;;;4971090;28;20030;-61
2021/11/22 10:29:28;;;;;;;1.77;1.33;;;7.20;95.10;;;;;;4948230;28;20027;-62
2021/11/22 10:32:00;;;;;;;2.28;1.20;;;7.30;94.90;;;;;;4936033;29;20082;-61
2021/11/22 10:34:26;;;;;;;2.00;1.20;;;7.30;95.20;;;;;;4956273;28;20102;-61
2021/11/22 10:37:00;;;;;;;2.20;1.10;;;7.30;94.60;;;;;;4972675;28;20033;-62
2021/11/22 10:39:28;;;;;;;1.35;1.00;;;7.30;94.60;;;;;;4970162;28;20061;-61
2021/11/22 10:41:55;;;;;;;3.05;1.40;;;7.30;94.70;;;;;;4972107;28;20038;-61
2021/11/22 10:44:21;;;;;;;2.10;1.00;;;7.40;94.40;;;;;;4972557;28;20094;-61
2021/11/22 10:49:34;;;;;;;3.45;1.20;;;7.40;94.40;;;;;;4971567;28;20042;-66
2021/11/22 10:52:14;;;;;;;3.03;1.50;;;7.50;94.40;;;;;;4952564;28;20027;-67
2021/11/22 10:54:59;;;;;;;2.42;1.10;;;7.60;94.30;;;;;;4967748;28;20125;-65
2021/11/22 10:57:34;;;;;;;;;;;7.60;94.00;;;;;;4970594;28;20053;-65
2021/11/22 11:00:00;;;;;;;1.60;1.10;;;7.60;93.70;;;;;;4965577;28;19914;-66
2021/11/22 11:02:42;;;;;;;2.65;1.25;;;7.60;93.70;;;;;;4959539;28;20035;-64
2021/11/22 11:05:07;;;;;;;2.85;1.10;;;7.60;93.60;;;;;;4950657;28;20084;-67
2021/11/22 11:07:33;;;;;;;2.03;1.30;;;7.60;93.20;;;;;;4970290;28;20062;-66
2021/11/22 11:10:00;;;;;;;1.52;1.00;;;7.60;93.20;;;;;;4968097;28;20031;-65
2021/11/22 11:12:26;;;;;;;4.13;1.58;;;7.70;93.20;;;;;;4964504;28;20031;-64
2021/11/22 11:14:53;;;;;;;1.92;1.10;;;7.70;93.20;;;;;;4967793;28;20034;-65
2021/11/22 11:17:23;;;;;;;2.45;1.20;;;7.80;93.00;;;;;;4975003;28;20038;-65
2021/11/22 11:19:54;;;;;;;3.15;1.52;;;7.80;93.00;;;;;;4973159;28;20072;-66
2021/11/22 11:22:21;;;;;;;1.63;1.08;;;7.90;92.60;;;;;;4972688;28;20038;-65
2021/11/22 11:24:47;;;;;;;2.92;1.58;;;7.90;92.80;;;;;;4968165;28;20497;-65
2021/11/22 11:27:12;;;;;;;2.20;1.50;;;7.90;92.70;;;;;;4955542;28;20423;-65
2021/11/22 11:29:38;;;;;;;1.95;1.27;;;7.90;91.30;;;;;;4971910;28;20098;-66
2021/11/22 11:32:04;;;;;;;2.90;1.40;;;7.90;91.70;;;;;;4974793;28;20066;-66
2021/11/22 11:34:32;;;;;;;1.85;1.05;;;7.90;91.90;;;;;;4977712;28;20077;-66
2021/11/22 11:37:18;;;;;;;1.30;0.80;;;7.90;91.50;;;;;;4983989;28;20093;-66
2021/11/22 11:40:03;;;;;;;2.22;1.02;;;7.90;91.10;;;;;;4983806;28;20069;-66
2021/11/22 11:42:59;;;;;;;7.90;3.13;;;7.90;90.80;;;;;;4974175;28;20038;-64
2021/11/22 11:45:53;;;;;;;2.95;1.52;;;8.00;91.50;;;;;;4962701;28;20039;-65
2021/11/22 11:48:36;;;;;;;2.13;1.20;;;8.00;91.50;;;;;;4975371;28;20031;-65
2021/11/22 11:51:22;;;;;;;2.78;1.35;;;8.00;91.50;;;;;;4973044;28;20018;-66
2021/11/22 11:54:08;;;;;;;;;;;8.10;91.20;;;;;;4972257;28;20045;-65
2021/11/22 11:56:43;;;;;;;3.30;1.50;;;8.10;91.20;;;;;;4964664;28;19924;-66
2021/11/22 11:59:38;;;;;;;2.42;1.58;;;8.10;91.20;;;;;;4974646;28;20034;-63
2021/11/22 12:02:24;;;;;;;5.70;1.80;;;8.10;90.80;;;;;;4975583;28;20121;-65
2021/11/22 12:04:56;;;;;;;;;;;8.10;90.70;;;;;;4978378;28;20052;-65
2021/11/22 12:07:37;;;;;;;4.85;1.95;;;8.10;90.40;;;;;;4973859;28;19914;-65
2021/11/22 12:10:17;;;;;;;5.05;1.90;;;8.00;90.50;;;;;;4969863;28;20081;-65
2021/11/22 12:12:52;;;;;;;1.88;1.10;;;8.10;90.90;;;;;;4974884;28;20043;-65
2021/11/22 12:15:28;;;;;;;2.05;1.13;;;8.10;90.20;;;;;;4968345;28;20026;-66
2021/11/22 12:18:01;;;;;;;1.67;1.10;;;8.10;89.90;;;;;;4974314;28;20031;-65
2021/11/22 12:20:27;;;;;;;1.30;0.82;;;8.20;90.00;;;;;;4973332;28;20506;-65
2021/11/22 12:23:14;;;;;;;1.67;0.88;;;8.20;89.10;;;;;;4968984;28;20074;-65
2021/11/22 12:25:41;;;;;;;2.95;1.17;;;8.20;90.10;;;;;;4959099;28;20034;-65
2021/11/22 12:28:19;;;;;;;3.05;1.77;;;8.30;90.20;;;;;;4966884;28;20033;-65
2021/11/22 12:30:48;;;;;;;2.95;1.58;;;8.40;90.10;;;;;;4972031;28;20023;-66
2021/11/22 12:33:25;;;;;;;4.05;1.90;;;8.40;90.20;;;;;;4958404;28;20042;-66
2021/11/22 12:35:55;;;;;;;3.22;1.17;;;8.40;89.20;;;;;;4973507;28;20120;-65
2021/11/22 12:38:46;;;;;;;3.67;1.50;;;8.40;89.10;;;;;;4973536;28;20031;-65
2021/11/22 12:41:26;;;;;;;1.48;1.02;;;8.30;86.70;;;;;;4964085;28;20045;-66
2021/11/22 12:43:56;;;;;;;1.35;0.93;;;8.20;87.60;;;;;;4970214;28;20114;-66
2021/11/22 12:46:40;;;;;;;1.65;0.60;;;8.10;86.70;;;;;;4973629;28;20035;-66
2021/11/22 12:49:24;;;;;;;0.93;0.70;;;8.10;86.30;;;;;;4973755;28;20034;-66
2021/11/22 12:51:51;;;;;;;0.77;0.65;;;8.00;85.70;;;;;;4974485;28;20019;-67
2021/11/22 12:54:19;;;;;;;1.77;1.00;;;7.90;87.30;;;;;;4970745;28;20298;-67
2021/11/22 12:56:45;;;;;;;0.73;0.70;;;7.90;87.30;;;;;;4959967;28;20071;-67
2021/11/22 12:59:25;;;;;;;2.25;0.98;;;7.90;87.50;;;;;;4972894;28;20062;-67
2021/11/22 13:01:53;;;;;;;1.67;1.00;;;7.80;87.30;;;;;;4974415;28;20374;-67
2021/11/22 13:04:50;;;;;;;2.17;1.00;;;7.80;86.70;;;;;;4972928;28;20026;-66
2021/11/22 13:07:34;;;;;;;1.80;0.90;;;7.70;87.20;;;;;;4956778;28;20117;-66
2021/11/22 13:10:05;;;;;;;1.77;0.93;;;7.70;87.00;;;;;;4973005;28;20477;-66